createdAt,value
2018-11-12T00:00:39.633Z,0
2018-11-12T00:01:39.131Z,0
2018-11-12T00:02:39.636Z,0
2018-11-12T00:03:39.658Z,0
2018-11-12T00:04:39.379Z,0
2018-11-12T00:05:39.397Z,0
2018-11-12T00:06:39.135Z,0
2018-11-12T00:07:39.441Z,0
2018-11-12T00:08:39.166Z,0
2018-11-12T00:09:39.654Z,0
2018-11-12T00:10:39.660Z,0
2018-11-12T00:11:39.663Z,0
2018-11-12T00:12:39.450Z,0
2018-11-12T00:13:39.673Z,0
2018-11-12T00:14:39.656Z,0
2018-11-12T00:15:39.652Z,0
2018-11-12T00:16:39.394Z,0
2018-11-12T00:17:39.466Z,0
2018-11-12T00:18:39.645Z,0
2018-11-12T00:19:39.652Z,0
2018-11-12T00:20:39.701Z,0
2018-11-12T00:21:39.431Z,0
2018-11-12T00:22:39.464Z,0
2018-11-12T00:23:39.655Z,0
2018-11-12T00:24:39.663Z,0
2018-11-12T00:25:39.425Z,0
2018-11-12T00:26:39.674Z,0
2018-11-12T00:27:39.170Z,0
2018-11-12T00:28:39.682Z,0
2018-11-12T00:29:39.434Z,0
2018-11-12T00:30:39.188Z,0
2018-11-12T00:31:39.441Z,0
2018-11-12T00:32:39.709Z,0
2018-11-12T00:33:39.697Z,0
2018-11-12T00:34:39.450Z,0
2018-11-12T00:35:39.444Z,0
2018-11-12T00:36:39.453Z,0
2018-11-12T00:37:39.498Z,0
2018-11-12T00:38:39.687Z,0
2018-11-12T00:39:39.442Z,0
2018-11-12T00:40:39.437Z,0
2018-11-12T00:41:39.694Z,0
2018-11-12T00:42:39.694Z,0
2018-11-12T00:43:39.464Z,0
2018-11-12T00:44:39.212Z,0
2018-11-12T00:45:39.712Z,0
2018-11-12T00:46:39.733Z,0
2018-11-12T00:47:39.736Z,0
2018-11-12T00:48:39.722Z,0
2018-11-12T00:49:39.472Z,0
2018-11-12T00:50:39.467Z,0
2018-11-12T00:51:39.467Z,0
2018-11-12T00:52:39.514Z,0
2018-11-12T00:53:39.466Z,0
2018-11-12T00:54:39.718Z,0
2018-11-12T00:55:39.726Z,0
2018-11-12T00:56:39.725Z,0
2018-11-12T00:57:39.740Z,0
2018-11-12T00:58:39.242Z,0
2018-11-12T00:59:39.493Z,0
2018-11-12T01:00:39.747Z,0
2018-11-12T01:01:39.511Z,0
2018-11-12T01:02:39.805Z,0
2018-11-12T01:03:39.742Z,0
2018-11-12T01:04:39.750Z,0
2018-11-12T01:05:39.755Z,0
2018-11-12T01:06:39.498Z,0
2018-11-12T01:07:39.555Z,0
2018-11-12T01:08:39.759Z,0
2018-11-12T01:09:39.507Z,0
2018-11-12T01:10:39.553Z,0
2018-11-12T01:11:39.255Z,0
2018-11-12T01:12:39.505Z,0
2018-11-12T01:13:39.519Z,0
2018-11-12T01:14:39.263Z,0
2018-11-12T01:15:39.511Z,0
2018-11-12T01:16:39.770Z,0
2018-11-12T01:17:39.522Z,0
2018-11-12T01:18:39.519Z,0
2018-11-12T01:19:39.522Z,0
2018-11-12T01:20:39.772Z,0
2018-11-12T01:21:39.778Z,0
2018-11-12T01:22:39.577Z,0
2018-11-12T01:23:39.524Z,0
2018-11-12T01:24:39.778Z,0
2018-11-12T01:25:39.797Z,0
2018-11-12T01:26:39.285Z,0
2018-11-12T01:27:39.546Z,0
2018-11-12T01:28:39.548Z,0
2018-11-12T01:29:39.547Z,0
2018-11-12T01:30:39.287Z,0
2018-11-12T01:31:39.801Z,0
2018-11-12T01:32:39.295Z,0
2018-11-12T01:33:39.552Z,0
2018-11-12T01:34:39.551Z,0
2018-11-12T01:35:39.610Z,0
2018-11-12T01:36:39.822Z,0
2018-11-12T01:37:39.852Z,0
2018-11-12T01:38:39.543Z,0
2018-11-12T01:39:39.568Z,0
2018-11-12T01:40:39.931Z,0
2018-11-12T01:41:39.816Z,0
2018-11-12T01:42:39.873Z,0
2018-11-12T01:43:39.814Z,0
2018-11-12T01:44:39.560Z,0
2018-11-12T01:45:39.830Z,0
2018-11-12T01:46:39.563Z,0
2018-11-12T01:47:39.819Z,0
2018-11-12T01:48:39.872Z,0
2018-11-12T01:49:39.825Z,0
2018-11-12T01:50:39.828Z,0
2018-11-12T01:51:39.567Z,0
2018-11-12T01:52:39.912Z,0
2018-11-12T01:53:39.829Z,0
2018-11-12T01:54:39.575Z,0
2018-11-12T01:55:39.595Z,0
2018-11-12T01:56:39.586Z,0
2018-11-12T01:57:39.834Z,0
2018-11-12T01:58:39.581Z,0
2018-11-12T01:59:39.845Z,0
2018-11-12T02:00:39.563Z,0
2018-11-12T02:01:40.065Z,0
2018-11-12T02:02:39.561Z,0
2018-11-12T02:03:39.819Z,0
2018-11-12T02:04:39.617Z,0
2018-11-12T02:05:39.822Z,0
2018-11-12T02:06:39.570Z,0
2018-11-12T02:07:39.387Z,0
2018-11-12T02:08:40.045Z,0
2018-11-12T02:09:39.853Z,0
2018-11-12T02:10:39.609Z,0
2018-11-12T02:11:39.848Z,0
2018-11-12T02:12:39.594Z,0
2018-11-12T02:13:39.855Z,0
2018-11-12T02:14:39.579Z,0
2018-11-12T02:15:39.599Z,0
2018-11-12T02:16:39.604Z,0
2018-11-12T02:17:39.602Z,0
2018-11-12T02:18:39.643Z,0
2018-11-12T02:19:39.603Z,0
2018-11-12T02:20:39.878Z,0
2018-11-12T02:21:39.752Z,0
2018-11-12T02:22:40.087Z,0
2018-11-12T02:23:39.869Z,0
2018-11-12T02:24:39.632Z,0
2018-11-12T02:25:39.728Z,0
2018-11-12T02:26:39.615Z,0
2018-11-12T02:27:39.883Z,0
2018-11-12T02:28:39.866Z,0
2018-11-12T02:29:39.941Z,0
2018-11-12T02:30:39.980Z,0
2018-11-12T02:31:39.873Z,0
2018-11-12T02:32:39.948Z,0
2018-11-12T02:33:39.623Z,0
2018-11-12T02:34:39.633Z,0
2018-11-12T02:35:39.887Z,0
2018-11-12T02:36:39.883Z,0
2018-11-12T02:37:39.689Z,0
2018-11-12T02:38:39.652Z,0
2018-11-12T02:39:39.635Z,0
2018-11-12T02:40:39.651Z,0
2018-11-12T02:41:39.632Z,0
2018-11-12T02:42:39.895Z,0
2018-11-12T02:43:39.966Z,0
2018-11-12T02:44:39.641Z,0
2018-11-12T02:45:39.639Z,0
2018-11-12T02:46:39.890Z,0
2018-11-12T02:47:39.686Z,0
2018-11-12T02:48:39.659Z,0
2018-11-12T02:49:39.910Z,0
2018-11-12T02:50:39.896Z,0
2018-11-12T02:51:39.643Z,0
2018-11-12T02:52:39.949Z,0
2018-11-12T02:53:39.653Z,0
2018-11-12T02:54:39.645Z,0
2018-11-12T02:55:39.640Z,0
2018-11-12T02:56:39.388Z,0
2018-11-12T02:57:40.443Z,0
2018-11-12T02:58:39.888Z,0
2018-11-12T02:59:39.377Z,0
2018-11-12T03:00:39.907Z,0
2018-11-12T03:01:39.883Z,0
2018-11-12T03:02:39.686Z,0
2018-11-12T03:03:39.884Z,0
2018-11-12T03:04:39.895Z,0
2018-11-12T03:05:39.882Z,0
2018-11-12T03:06:39.894Z,0
2018-11-12T03:07:40.064Z,0
2018-11-12T03:08:39.668Z,0
2018-11-12T03:09:39.908Z,0
2018-11-12T03:10:39.657Z,0
2018-11-12T03:11:39.670Z,0
2018-11-12T03:12:39.917Z,0
2018-11-12T03:13:39.972Z,0
2018-11-12T03:14:39.926Z,0
2018-11-12T03:15:39.925Z,0
2018-11-12T03:16:39.936Z,0
2018-11-12T03:17:39.967Z,0
2018-11-12T03:18:39.667Z,0
2018-11-12T03:19:39.919Z,0
2018-11-12T03:20:39.664Z,0
2018-11-12T03:21:39.924Z,0
2018-11-12T03:22:39.665Z,0
2018-11-12T03:23:39.937Z,0
2018-11-12T03:24:39.920Z,0
2018-11-12T03:25:39.924Z,0
2018-11-12T03:26:39.675Z,0
2018-11-12T03:27:40.278Z,0
2018-11-12T03:28:39.926Z,0
2018-11-12T03:29:39.897Z,0
2018-11-12T03:30:40.141Z,0
2018-11-12T03:31:39.401Z,0
2018-11-12T03:32:39.458Z,0
2018-11-12T03:33:39.929Z,0
2018-11-12T03:34:39.649Z,0
2018-11-12T03:35:39.916Z,0
2018-11-12T03:36:39.904Z,0
2018-11-12T03:37:39.678Z,0
2018-11-12T03:38:39.940Z,0
2018-11-12T03:39:39.949Z,0
2018-11-12T03:40:39.941Z,0
2018-11-12T03:41:39.677Z,0
2018-11-12T03:42:39.680Z,0
2018-11-12T03:43:39.965Z,0
2018-11-12T03:44:39.949Z,0
2018-11-12T03:45:39.688Z,0
2018-11-12T03:46:39.420Z,0
2018-11-12T03:47:39.489Z,0
2018-11-12T03:48:39.952Z,0
2018-11-12T03:49:39.951Z,0
2018-11-12T03:50:39.947Z,0
2018-11-12T03:51:40.004Z,0
2018-11-12T03:52:39.947Z,0
2018-11-12T03:53:39.188Z,0
2018-11-12T03:54:39.695Z,0
2018-11-12T03:55:39.954Z,0
2018-11-12T03:56:39.448Z,0
2018-11-12T03:57:39.443Z,0
2018-11-12T03:58:39.948Z,0
2018-11-12T03:59:39.703Z,0
2018-11-12T04:00:39.698Z,0
2018-11-12T04:01:39.953Z,0
2018-11-12T04:02:40.007Z,0
2018-11-12T04:03:39.962Z,0
2018-11-12T04:04:39.702Z,0
2018-11-12T04:05:39.966Z,0
2018-11-12T04:06:39.702Z,0
2018-11-12T04:07:40.005Z,0
2018-11-12T04:08:39.965Z,0
2018-11-12T04:09:39.479Z,0
2018-11-12T04:10:39.961Z,0
2018-11-12T04:11:39.952Z,0
2018-11-12T04:12:39.452Z,0
2018-11-12T04:13:39.979Z,0
2018-11-12T04:14:39.981Z,0
2018-11-12T04:15:39.970Z,0
2018-11-12T04:16:39.707Z,0
2018-11-12T04:17:39.729Z,0
2018-11-12T04:18:39.965Z,0
2018-11-12T04:19:39.494Z,0
2018-11-12T04:20:39.970Z,0
2018-11-12T04:21:39.710Z,0
2018-11-12T04:22:40.018Z,0
2018-11-12T04:23:39.976Z,0
2018-11-12T04:24:39.969Z,0
2018-11-12T04:25:39.987Z,0
2018-11-12T04:26:39.919Z,0
2018-11-12T04:27:39.963Z,0
2018-11-12T04:28:39.975Z,0
2018-11-12T04:29:39.959Z,0
2018-11-12T04:30:39.981Z,0
2018-11-12T04:31:39.964Z,0
2018-11-12T04:32:39.975Z,0
2018-11-12T04:33:39.981Z,0
2018-11-12T04:34:39.967Z,0
2018-11-12T04:35:40.076Z,0
2018-11-12T04:36:39.716Z,0
2018-11-12T04:37:40.025Z,0
2018-11-12T04:38:39.730Z,0
2018-11-12T04:39:39.717Z,0
2018-11-12T04:40:39.963Z,0
2018-11-12T04:41:39.996Z,0
2018-11-12T04:42:39.720Z,0
2018-11-12T04:43:39.719Z,0
2018-11-12T04:44:39.980Z,0
2018-11-12T04:45:40.027Z,0
2018-11-12T04:46:39.731Z,0
2018-11-12T04:47:40.028Z,0
2018-11-12T04:48:39.732Z,0
2018-11-12T04:49:39.732Z,0
2018-11-12T04:50:39.753Z,0
2018-11-12T04:51:39.483Z,0
2018-11-12T04:52:40.052Z,0
2018-11-12T04:53:40.055Z,0
2018-11-12T04:54:39.745Z,0
2018-11-12T04:55:39.995Z,0
2018-11-12T04:56:39.734Z,0
2018-11-12T04:57:39.995Z,0
2018-11-12T04:58:40.000Z,0
2018-11-12T04:59:39.503Z,0
2018-11-12T05:00:40.009Z,0
2018-11-12T05:01:40.008Z,0
2018-11-12T05:02:39.743Z,0
2018-11-12T05:03:39.741Z,0
2018-11-12T05:04:39.997Z,0
2018-11-12T05:05:40.011Z,0
2018-11-12T05:06:39.995Z,0
2018-11-12T05:07:40.172Z,0
2018-11-12T05:08:39.732Z,0
2018-11-12T05:09:39.987Z,0
2018-11-12T05:10:39.984Z,0
2018-11-12T05:11:39.980Z,0
2018-11-12T05:12:39.980Z,0
2018-11-12T05:13:39.480Z,0
2018-11-12T05:14:40.025Z,0
2018-11-12T05:15:40.007Z,0
2018-11-12T05:16:39.969Z,0
2018-11-12T05:17:40.017Z,0
2018-11-12T05:18:40.017Z,0
2018-11-12T05:19:39.771Z,0
2018-11-12T05:20:39.748Z,0
2018-11-12T05:21:39.742Z,0
2018-11-12T05:22:39.858Z,0
2018-11-12T05:23:39.753Z,0
2018-11-12T05:24:40.014Z,0
2018-11-12T05:25:40.019Z,0
2018-11-12T05:26:39.754Z,0
2018-11-12T05:27:40.021Z,0
2018-11-12T05:28:40.022Z,0
2018-11-12T05:29:40.003Z,0
2018-11-12T05:30:39.767Z,0
2018-11-12T05:31:39.753Z,0
2018-11-12T05:32:40.008Z,0
2018-11-12T05:33:39.751Z,0
2018-11-12T05:34:39.766Z,0
2018-11-12T05:35:40.015Z,0
2018-11-12T05:36:39.764Z,0
2018-11-12T05:37:39.951Z,0
2018-11-12T05:38:40.050Z,4
2018-11-12T05:39:40.020Z,4
2018-11-12T05:40:40.060Z,4
2018-11-12T05:41:40.017Z,4
2018-11-12T05:42:39.765Z,4
2018-11-12T05:43:39.509Z,4
2018-11-12T05:44:40.139Z,4
2018-11-12T05:45:39.772Z,4
2018-11-12T05:46:39.769Z,4
2018-11-12T05:47:39.515Z,4
2018-11-12T05:48:40.047Z,4
2018-11-12T05:49:39.771Z,8
2018-11-12T05:50:40.018Z,8
2018-11-12T05:51:40.712Z,12
2018-11-12T05:52:40.075Z,8
2018-11-12T05:53:40.037Z,12
2018-11-12T05:54:39.773Z,12
2018-11-12T05:55:40.024Z,20
2018-11-12T05:56:39.776Z,20
2018-11-12T05:57:39.521Z,24
2018-11-12T05:58:40.037Z,28
2018-11-12T05:59:39.778Z,36
2018-11-12T06:00:40.048Z,36
2018-11-12T06:01:40.040Z,48
2018-11-12T06:02:40.027Z,52
2018-11-12T06:03:39.523Z,60
2018-11-12T06:04:40.109Z,68
2018-11-12T06:05:40.033Z,80
2018-11-12T06:06:39.778Z,92
2018-11-12T06:07:40.098Z,104
2018-11-12T06:08:40.043Z,116
2018-11-12T06:09:40.042Z,128
2018-11-12T06:10:39.780Z,148
2018-11-12T06:11:40.062Z,160
2018-11-12T06:12:39.532Z,180
2018-11-12T06:13:39.783Z,200
2018-11-12T06:14:40.052Z,224
2018-11-12T06:15:40.047Z,244
2018-11-12T06:16:40.035Z,264
2018-11-12T06:17:40.028Z,288
2018-11-12T06:18:40.033Z,312
2018-11-12T06:19:40.027Z,340
2018-11-12T06:20:40.030Z,364
2018-11-12T06:21:39.542Z,388
2018-11-12T06:22:40.287Z,416
2018-11-12T06:23:39.766Z,440
2018-11-12T06:24:40.020Z,468
2018-11-12T06:25:39.775Z,500
2018-11-12T06:26:40.063Z,528
2018-11-12T06:27:39.769Z,556
2018-11-12T06:28:40.017Z,588
2018-11-12T06:29:39.767Z,616
2018-11-12T06:30:40.023Z,648
2018-11-12T06:31:39.533Z,676
2018-11-12T06:32:40.062Z,704
2018-11-12T06:33:40.068Z,736
2018-11-12T06:34:40.058Z,764
2018-11-12T06:35:40.055Z,792
2018-11-12T06:36:39.951Z,824
2018-11-12T06:37:40.166Z,852
2018-11-12T06:38:40.060Z,880
2018-11-12T06:39:40.053Z,908
2018-11-12T06:40:39.549Z,936
2018-11-12T06:41:40.067Z,964
2018-11-12T06:42:40.111Z,988
2018-11-12T06:43:40.064Z,1016
2018-11-12T06:44:40.058Z,1044
2018-11-12T06:45:40.060Z,1076
2018-11-12T06:46:39.809Z,1104
2018-11-12T06:47:40.119Z,1136
2018-11-12T06:48:40.064Z,1172
2018-11-12T06:49:40.068Z,1208
2018-11-12T06:50:39.804Z,1244
2018-11-12T06:51:40.065Z,1280
2018-11-12T06:52:40.209Z,1320
2018-11-12T06:53:40.014Z,1352
2018-11-12T06:54:40.066Z,1392
2018-11-12T06:55:40.081Z,1432
2018-11-12T06:56:39.814Z,1468
2018-11-12T06:57:40.075Z,1516
2018-11-12T06:58:40.085Z,1556
2018-11-12T06:59:40.076Z,1600
2018-11-12T07:00:40.183Z,1648
2018-11-12T07:01:39.567Z,1704
2018-11-12T07:02:40.076Z,1756
2018-11-12T07:03:40.077Z,1808
2018-11-12T07:04:40.078Z,1864
2018-11-12T07:05:40.094Z,1920
2018-11-12T07:06:40.575Z,1972
2018-11-12T07:07:40.128Z,2028
2018-11-12T07:08:39.826Z,2084
2018-11-12T07:09:39.833Z,2144
2018-11-12T07:10:40.097Z,2204
2018-11-12T07:11:39.593Z,2256
2018-11-12T07:12:40.080Z,2300
2018-11-12T07:13:40.133Z,2344
2018-11-12T07:14:40.092Z,2388
2018-11-12T07:15:39.329Z,2436
2018-11-12T07:16:40.096Z,2484
2018-11-12T07:17:40.114Z,2532
2018-11-12T07:18:40.097Z,2584
2018-11-12T07:19:40.090Z,2624
2018-11-12T07:20:39.845Z,2672
2018-11-12T07:21:39.840Z,2716
2018-11-12T07:22:40.158Z,2760
2018-11-12T07:23:39.591Z,2804
2018-11-12T07:24:40.118Z,2848
2018-11-12T07:25:40.102Z,2892
2018-11-12T07:26:39.829Z,2940
2018-11-12T07:27:39.834Z,2988
2018-11-12T07:28:40.080Z,3036
2018-11-12T07:29:39.844Z,3084
2018-11-12T07:30:40.275Z,3136
2018-11-12T07:31:40.086Z,3184
2018-11-12T07:32:39.832Z,3232
2018-11-12T07:33:40.115Z,3280
2018-11-12T07:34:40.115Z,3328
2018-11-12T07:35:40.176Z,3372
2018-11-12T07:36:40.129Z,3424
2018-11-12T07:37:39.922Z,3468
2018-11-12T07:38:40.114Z,3516
2018-11-12T07:39:40.115Z,3556
2018-11-12T07:40:39.869Z,3608
2018-11-12T07:41:39.869Z,3644
2018-11-12T07:42:40.139Z,3684
2018-11-12T07:43:40.139Z,3724
2018-11-12T07:44:40.128Z,3764
2018-11-12T07:45:39.881Z,3800
2018-11-12T07:46:40.045Z,3840
2018-11-12T07:47:40.135Z,3876
2018-11-12T07:48:40.099Z,3908
2018-11-12T07:49:39.882Z,3948
2018-11-12T07:50:40.128Z,3980
2018-11-12T07:51:40.121Z,4020
2018-11-12T07:52:40.176Z,4048
2018-11-12T07:53:39.878Z,4084
2018-11-12T07:54:39.880Z,4124
2018-11-12T07:55:39.896Z,4152
2018-11-12T07:56:40.140Z,4184
2018-11-12T07:57:39.890Z,4212
2018-11-12T07:58:39.897Z,4244
2018-11-12T07:59:39.896Z,4276
2018-11-12T08:00:40.192Z,4308
2018-11-12T08:01:40.177Z,4336
2018-11-12T08:02:40.219Z,4364
2018-11-12T08:03:40.516Z,4388
2018-11-12T08:04:40.210Z,4424
2018-11-12T08:05:40.161Z,4448
2018-11-12T08:06:40.164Z,4480
2018-11-12T08:07:39.970Z,4504
2018-11-12T08:08:40.179Z,4532
2018-11-12T08:09:40.719Z,4560
2018-11-12T08:10:40.195Z,4592
2018-11-12T08:11:40.238Z,4616
2018-11-12T08:12:40.191Z,4644
2018-11-12T08:13:39.942Z,4672
2018-11-12T08:14:40.683Z,4696
2018-11-12T08:15:39.700Z,4724
2018-11-12T08:16:40.213Z,4752
2018-11-12T08:17:40.308Z,4772
2018-11-12T08:18:40.659Z,4800
2018-11-12T08:19:40.212Z,4824
2018-11-12T08:20:40.201Z,4852
2018-11-12T08:21:39.820Z,4872
2018-11-12T08:22:39.773Z,4892
2018-11-12T08:23:39.716Z,4912
2018-11-12T08:24:40.603Z,4936
2018-11-12T08:25:39.727Z,4956
2018-11-12T08:26:40.245Z,4976
2018-11-12T08:27:40.635Z,5000
2018-11-12T08:28:39.982Z,5020
2018-11-12T08:29:40.577Z,5036
2018-11-12T08:30:40.350Z,5056
2018-11-12T08:31:40.247Z,5080
2018-11-12T08:32:40.071Z,5096
2018-11-12T08:33:39.993Z,5116
2018-11-12T08:34:40.003Z,5136
2018-11-12T08:35:40.283Z,5156
2018-11-12T08:36:40.311Z,5176
2018-11-12T08:37:40.312Z,5192
2018-11-12T08:38:40.260Z,5180
2018-11-12T08:39:41.028Z,5212
2018-11-12T08:40:41.122Z,5240
2018-11-12T08:41:40.025Z,5260
2018-11-12T08:42:40.084Z,5280
2018-11-12T08:43:40.287Z,5300
2018-11-12T08:44:40.038Z,5316
2018-11-12T08:45:40.037Z,5336
2018-11-12T08:46:40.310Z,5348
2018-11-12T08:47:40.262Z,5368
2018-11-12T08:48:40.281Z,5384
2018-11-12T08:49:41.290Z,5396
2018-11-12T08:50:40.055Z,5416
2018-11-12T08:51:40.344Z,5440
2018-11-12T08:52:40.383Z,5452
2018-11-12T08:53:40.329Z,5468
2018-11-12T08:54:40.993Z,5480
2018-11-12T08:55:40.669Z,5500
2018-11-12T08:56:39.580Z,5512
2018-11-12T08:57:40.347Z,5528
2018-11-12T08:58:40.357Z,5544
2018-11-12T08:59:40.865Z,5560
2018-11-12T09:00:40.515Z,5576
2018-11-12T09:01:40.368Z,5592
2018-11-12T09:02:40.409Z,5608
2018-11-12T09:03:39.866Z,5620
2018-11-12T09:04:39.873Z,5640
2018-11-12T09:05:40.469Z,5656
2018-11-12T09:06:40.383Z,5656
2018-11-12T09:07:40.451Z,5692
2018-11-12T09:08:40.386Z,5708
2018-11-12T09:09:40.145Z,5724
2018-11-12T09:10:40.148Z,5740
2018-11-12T09:11:40.417Z,5752
2018-11-12T09:12:40.149Z,5756
2018-11-12T09:13:39.960Z,5784
2018-11-12T09:14:40.415Z,5800
2018-11-12T09:15:40.683Z,5820
2018-11-12T09:16:40.424Z,5832
2018-11-12T09:17:39.676Z,5856
2018-11-12T09:18:40.187Z,5876
2018-11-12T09:19:40.195Z,5888
2018-11-12T09:20:40.199Z,5904
2018-11-12T09:21:40.464Z,5908
2018-11-12T09:22:40.275Z,5924
2018-11-12T09:23:40.476Z,5936
2018-11-12T09:24:40.474Z,5944
2018-11-12T09:25:40.264Z,5964
2018-11-12T09:26:40.243Z,5956
2018-11-12T09:27:40.499Z,5972
2018-11-12T09:28:40.252Z,5960
2018-11-12T09:29:41.154Z,6016
2018-11-12T09:30:41.477Z,6000
2018-11-12T09:31:40.675Z,6016
2018-11-12T09:32:41.403Z,6012
2018-11-12T09:33:40.735Z,6072
2018-11-12T09:34:40.324Z,6088
2018-11-12T09:35:40.595Z,6100
2018-11-12T09:36:40.791Z,6128
2018-11-12T09:37:40.376Z,6140
2018-11-12T09:38:40.542Z,6156
2018-11-12T09:39:40.575Z,6172
2018-11-12T09:40:40.368Z,6184
2018-11-12T09:41:40.765Z,6204
2018-11-12T09:42:40.338Z,6252
2018-11-12T09:43:40.716Z,7280
2018-11-12T09:44:40.597Z,9316
2018-11-12T09:45:40.605Z,10076
2018-11-12T09:46:40.603Z,10188
2018-11-12T09:47:40.463Z,10272
2018-11-12T09:48:40.640Z,10372
2018-11-12T09:49:40.372Z,10452
2018-11-12T09:50:40.635Z,10572
2018-11-12T09:51:40.630Z,10704
2018-11-12T09:52:41.893Z,10872
2018-11-12T09:53:40.991Z,10992
2018-11-12T09:54:41.544Z,11136
2018-11-12T09:55:40.888Z,11308
2018-11-12T09:56:40.428Z,11516
2018-11-12T09:57:40.683Z,11728
2018-11-12T09:58:40.442Z,11976
2018-11-12T09:59:40.724Z,12276
2018-11-12T10:00:41.920Z,12656
2018-11-12T10:01:43.722Z,12860
2018-11-12T10:02:46.772Z,13960
2018-11-12T10:03:48.373Z,17408
2018-11-12T10:04:47.758Z,24544
2018-11-12T10:05:48.231Z,31104
2018-11-12T10:06:48.360Z,34368
2018-11-12T10:07:51.432Z,32352
2018-11-12T10:08:52.359Z,32096
2018-11-12T10:09:48.699Z,34464
2018-11-12T10:10:49.670Z,37504
2018-11-12T10:11:48.584Z,36288
2018-11-12T10:12:57.394Z,34688
2018-11-12T10:13:57.598Z,36928
2018-11-12T10:14:57.700Z,43456
2018-11-12T10:15:58.023Z,46848
2018-11-12T10:16:59.982Z,48352
2018-11-12T10:17:55.820Z,48384
2018-11-12T10:18:40.678Z,48864
2018-11-12T10:19:41.182Z,48672
2018-11-12T10:20:40.946Z,50080
2018-11-12T10:21:40.960Z,50368
2018-11-12T10:22:41.035Z,51712
2018-11-12T10:23:40.988Z,51840
2018-11-12T10:24:41.008Z,53888
2018-11-12T10:25:41.030Z,55872
2018-11-12T10:26:41.035Z,56384
2018-11-12T10:27:41.054Z,56448
2018-11-12T10:28:41.071Z,57248
2018-11-12T10:29:40.824Z,57184
2018-11-12T10:30:40.839Z,57216
2018-11-12T10:31:40.599Z,56416
2018-11-12T10:32:41.132Z,56128
2018-11-12T10:33:41.120Z,57504
2018-11-12T10:34:41.153Z,58336
2018-11-12T10:35:40.913Z,58048
2018-11-12T10:36:40.935Z,58784
2018-11-12T10:37:41.234Z,59200
2018-11-12T10:38:41.202Z,61696
2018-11-12T10:39:41.278Z,66496
2018-11-12T10:40:41.006Z,72992
2018-11-12T10:41:41.267Z,73632
2018-11-12T10:42:41.493Z,71968
2018-11-12T10:43:41.297Z,67008
2018-11-12T10:44:41.316Z,63168
2018-11-12T10:45:41.077Z,59264
2018-11-12T10:46:41.343Z,55936
2018-11-12T10:47:41.341Z,52032
2018-11-12T10:48:41.099Z,48320
2018-11-12T10:49:41.410Z,48544
2018-11-12T10:50:40.897Z,58144
2018-11-12T10:51:41.181Z,63936
2018-11-12T10:52:41.234Z,65568
2018-11-12T10:53:52.960Z,63168
2018-11-12T10:54:41.966Z,63680
2018-11-12T10:55:42.367Z,65152
2018-11-12T10:56:40.972Z,68000
2018-11-12T10:57:41.240Z,71040
2018-11-12T10:58:42.044Z,72864
2018-11-12T10:59:41.541Z,72576
2018-11-12T11:00:41.593Z,69312
2018-11-12T11:01:41.574Z,66496
2018-11-12T11:02:41.589Z,66464
2018-11-12T11:03:41.606Z,68672
2018-11-12T11:04:41.373Z,71584
2018-11-12T11:05:41.394Z,76224
2018-11-12T11:06:41.692Z,80224
2018-11-12T11:07:41.235Z,81600
2018-11-12T11:08:41.460Z,81408
2018-11-12T11:09:41.750Z,81120
2018-11-12T11:10:41.762Z,81504
2018-11-12T11:11:41.524Z,83232
2018-11-12T11:12:41.917Z,83200
2018-11-12T11:13:41.632Z,81536
2018-11-12T11:14:41.826Z,79968
2018-11-12T11:15:42.403Z,80064
2018-11-12T11:16:41.862Z,80352
2018-11-12T11:17:41.954Z,79264
2018-11-12T11:18:41.900Z,76256
2018-11-12T11:19:41.422Z,74496
2018-11-12T11:20:41.911Z,75872
2018-11-12T11:21:41.931Z,76320
2018-11-12T11:22:41.799Z,76128
2018-11-12T11:23:41.973Z,72608
2018-11-12T11:24:41.759Z,72928
2018-11-12T11:25:41.879Z,71680
2018-11-12T11:26:42.337Z,73248
2018-11-12T11:27:42.082Z,73440
2018-11-12T11:28:42.100Z,73280
2018-11-12T11:29:41.869Z,71104
2018-11-12T11:30:42.142Z,71488
2018-11-12T11:31:41.970Z,69440
2018-11-12T11:32:41.935Z,63168
2018-11-12T11:33:42.203Z,54208
2018-11-12T11:34:42.230Z,43712
2018-11-12T11:35:41.994Z,38496
2018-11-12T11:36:42.274Z,37984
2018-11-12T11:37:42.379Z,44320
2018-11-12T11:38:42.287Z,62144
2018-11-12T11:39:41.805Z,71104
2018-11-12T11:40:42.664Z,71136
2018-11-12T11:41:42.366Z,74272
2018-11-12T11:42:42.122Z,76160
2018-11-12T11:43:42.403Z,67904
2018-11-12T11:44:42.165Z,72640
2018-11-12T11:45:42.445Z,85760
2018-11-12T11:46:42.499Z,94208
2018-11-12T11:47:43.312Z,95616
2018-11-12T11:48:42.308Z,98688
2018-11-12T11:49:42.018Z,115104
2018-11-12T11:50:42.895Z,120224
2018-11-12T11:51:42.751Z,90688
2018-11-12T11:52:42.662Z,49056
2018-11-12T11:53:42.635Z,30496
2018-11-12T11:54:42.655Z,29504
2018-11-12T11:55:42.684Z,30080
2018-11-12T11:56:42.696Z,30848
2018-11-12T11:57:42.945Z,31104
2018-11-12T11:58:42.745Z,31552
2018-11-12T11:59:42.778Z,31776
2018-11-12T12:00:42.797Z,32096
2018-11-12T12:01:43.029Z,32640
2018-11-12T12:02:42.631Z,31712
2018-11-12T12:03:43.065Z,32672
2018-11-12T12:04:42.882Z,35744
2018-11-12T12:05:42.920Z,39264
2018-11-12T12:06:42.674Z,42784
2018-11-12T12:07:43.000Z,47712
2018-11-12T12:08:43.238Z,51648
2018-11-12T12:09:43.000Z,51968
2018-11-12T12:10:42.773Z,52512
2018-11-12T12:11:43.044Z,53984
2018-11-12T12:12:43.073Z,56544
2018-11-12T12:13:43.086Z,59328
2018-11-12T12:14:42.855Z,64192
2018-11-12T12:15:42.889Z,64448
2018-11-12T12:16:42.915Z,61696
2018-11-12T12:17:43.465Z,62720
2018-11-12T12:18:42.914Z,67840
2018-11-12T12:19:43.252Z,72544
2018-11-12T12:20:43.008Z,71648
2018-11-12T12:21:43.269Z,71232
2018-11-12T12:22:43.338Z,71680
2018-11-12T12:23:43.062Z,75456
2018-11-12T12:24:43.828Z,83776
2018-11-12T12:25:43.682Z,90656
2018-11-12T12:26:43.143Z,90240
2018-11-12T12:27:43.417Z,89280
2018-11-12T12:28:43.442Z,92512
2018-11-12T12:29:43.223Z,88416
2018-11-12T12:30:43.494Z,84736
2018-11-12T12:31:43.566Z,82304
2018-11-12T12:32:43.761Z,80992
2018-11-12T12:33:43.313Z,77632
2018-11-12T12:34:43.739Z,69696
2018-11-12T12:35:43.570Z,73696
2018-11-12T12:36:44.174Z,72640
2018-11-12T12:37:44.234Z,81984
2018-11-12T12:38:43.679Z,82816
2018-11-12T12:39:43.691Z,79072
2018-11-12T12:40:43.719Z,72000
2018-11-12T12:41:43.762Z,63776
2018-11-12T12:42:43.516Z,56128
2018-11-12T12:43:43.797Z,60000
2018-11-12T12:44:44.229Z,77600
2018-11-12T12:45:44.589Z,80672
2018-11-12T12:46:43.613Z,86592
2018-11-12T12:47:43.940Z,89728
2018-11-12T12:48:43.910Z,92160
2018-11-12T12:49:44.395Z,92992
2018-11-12T12:50:43.700Z,92544
2018-11-12T12:51:43.686Z,91168
2018-11-12T12:52:44.992Z,89952
2018-11-12T12:53:44.014Z,87968
2018-11-12T12:54:44.037Z,71808
2018-11-12T12:55:44.608Z,65216
2018-11-12T12:56:44.104Z,55968
2018-11-12T12:57:44.129Z,56320
2018-11-12T12:58:44.134Z,51584
2018-11-12T12:59:44.329Z,61504
2018-11-12T13:00:43.925Z,64512
2018-11-12T13:01:44.628Z,64992
2018-11-12T13:02:44.051Z,62912
2018-11-12T13:03:44.248Z,54720
2018-11-12T13:04:44.393Z,49728
2018-11-12T13:05:44.296Z,58112
2018-11-12T13:06:44.593Z,78336
2018-11-12T13:07:44.361Z,81248
2018-11-12T13:08:44.111Z,79712
2018-11-12T13:09:44.122Z,72800
2018-11-12T13:10:44.157Z,68096
2018-11-12T13:11:44.428Z,82176
2018-11-12T13:12:44.468Z,88128
2018-11-12T13:13:44.543Z,87584
2018-11-12T13:14:45.372Z,82624
2018-11-12T13:15:44.284Z,78528
2018-11-12T13:16:44.557Z,72672
2018-11-12T13:17:44.625Z,77888
2018-11-12T13:18:44.598Z,87488
2018-11-12T13:19:44.832Z,89440
2018-11-12T13:20:44.510Z,87008
2018-11-12T13:21:44.162Z,87296
2018-11-12T13:22:44.459Z,87232
2018-11-12T13:23:44.726Z,86912
2018-11-12T13:24:44.483Z,90912
2018-11-12T13:25:44.761Z,90656
2018-11-12T13:26:44.797Z,89792
2018-11-12T13:27:44.548Z,91296
2018-11-12T13:28:44.564Z,90400
2018-11-12T13:29:45.035Z,82528
2018-11-12T13:30:44.618Z,76992
2018-11-12T13:31:44.642Z,47968
2018-11-12T13:32:44.461Z,9560
2018-11-12T13:33:44.431Z,3948
2018-11-12T13:34:44.968Z,3956
2018-11-12T13:35:45.338Z,3988
2018-11-12T13:36:45.008Z,20000
2018-11-12T13:37:44.525Z,61440
2018-11-12T13:38:44.800Z,83200
2018-11-12T13:39:45.078Z,82464
2018-11-12T13:40:44.841Z,71136
2018-11-12T13:41:45.104Z,49664
2018-11-12T13:42:44.863Z,27392
2018-11-12T13:43:45.135Z,8684
2018-11-12T13:44:45.156Z,3892
2018-11-12T13:45:45.199Z,3856
2018-11-12T13:46:45.897Z,3824
2018-11-12T13:47:45.265Z,3796
2018-11-12T13:48:45.225Z,3776